Time;durP1;ratioP1;P1;durP2;ratioP2;P2;SDS_P1;SDS_P2;PMS_P1;PMS_P2;Temp;Humidity;BMP_temperature;BMP_pressure;BME280_temperature;BME280_humidity;BME280_pressure;Samples;Min_cycle;Max_cycle;Signal;HPM_P1;HPM_P2
2023/06/18 00:01:31;;;;;;;10.32;6.20;;;25.10;1.00;;;;;;5030925;28;20416;-51
2023/06/18 00:03:58;;;;;;;10.45;5.68;;;25.10;1.00;;;;;;5031581;28;20042;-50
2023/06/18 00:06:25;;;;;;;7.75;5.57;;;25.10;1.00;;;;;;5031251;28;20076;-48
2023/06/18 00:08:52;;;;;;;8.45;5.93;;;25.10;1.00;;;;;;5031578;28;20512;-50
2023/06/18 00:11:18;;;;;;;10.35;6.43;;;25.10;1.00;;;;;;5031262;28;20052;-45
2023/06/18 00:13:45;;;;;;;6.80;5.20;;;25.10;1.00;;;;;;5013773;28;20081;-51
2023/06/18 00:16:12;;;;;;;9.50;6.00;;;25.10;1.00;;;;;;5031542;28;20045;-49
2023/06/18 00:18:39;;;;;;;8.75;5.55;;;25.10;1.00;;;;;;5031507;28;20048;-51
2023/06/18 00:21:10;;;;;;;10.43;6.15;;;25.10;1.00;;;;;;5029976;28;20045;-49
2023/06/18 00:23:37;;;;;;;10.13;5.25;;;25.10;1.00;;;;;;5031173;28;20049;-49
2023/06/18 00:26:03;;;;;;;7.72;5.80;;;25.10;1.00;;;;;;5031469;28;20116;-50
2023/06/18 00:28:31;;;;;;;11.65;6.25;;;25.10;1.00;;;;;;5031045;28;20057;-57
2023/06/18 00:30:58;;;;;;;8.45;5.85;;;25.10;1.00;;;;;;5018253;28;20471;-50
2023/06/18 00:33:24;;;;;;;6.95;5.43;;;25.10;1.00;;;;;;5022143;28;20080;-46
2023/06/18 00:35:59;;;;;;;9.35;6.00;;;25.10;1.00;;;;;;5013245;28;20129;-45
2023/06/18 00:38:29;;;;;;;8.63;5.28;;;25.10;1.00;;;;;;5013378;28;20049;-50
2023/06/18 00:40:56;;;;;;;7.43;5.65;;;25.10;1.00;;;;;;5031144;28;20116;-51
2023/06/18 00:43:22;;;;;;;7.38;5.72;;;25.10;1.00;;;;;;5030905;28;20044;-49
2023/06/18 00:45:50;;;;;;;11.38;6.32;;;25.10;1.00;;;;;;5032159;28;20484;-51
2023/06/18 00:48:17;;;;;;;8.98;5.93;;;25.10;1.00;;;;;;5034778;28;20063;-51
2023/06/18 00:50:44;;;;;;;8.18;5.55;;;25.10;1.00;;;;;;5017072;28;20400;-49
2023/06/18 00:53:13;;;;;;;8.05;5.47;;;25.10;1.00;;;;;;5034791;28;20041;-51
2023/06/18 00:55:41;;;;;;;7.90;4.53;;;25.10;1.00;;;;;;5033177;28;20493;-51
2023/06/18 00:58:08;;;;;;;7.53;5.38;;;25.10;1.00;;;;;;5034684;28;20049;-51
2023/06/18 01:00:35;;;;;;;7.45;5.55;;;25.10;1.00;;;;;;5019535;28;20352;-51
2023/06/18 01:03:06;;;;;;;8.43;4.90;;;25.10;1.00;;;;;;5034132;28;20041;-51
2023/06/18 01:05:34;;;;;;;8.10;5.20;;;25.10;1.00;;;;;;5038627;28;20069;-47
2023/06/18 01:08:07;;;;;;;7.97;5.60;;;25.00;1.00;;;;;;5034301;28;20112;-51
2023/06/18 01:10:39;;;;;;;6.65;5.57;;;25.00;1.00;;;;;;5034211;28;20041;-50
2023/06/18 01:13:10;;;;;;;8.32;5.25;;;25.00;1.00;;;;;;5034376;28;20034;-48
2023/06/18 01:15:38;;;;;;;9.60;4.93;;;25.00;1.00;;;;;;5034353;28;20029;-47
2023/06/18 01:18:07;;;;;;;10.50;5.80;;;25.00;1.00;;;;;;5032940;28;20056;-49
2023/06/18 01:20:40;;;;;;;7.85;5.07;;;25.00;1.00;;;;;;5016247;28;20072;-50
2023/06/18 01:23:29;;;;;;;6.93;5.07;;;25.00;1.00;;;;;;5016223;28;20133;-50
2023/06/18 01:25:59;;;;;;;7.85;4.78;;;25.00;1.00;;;;;;5034145;28;20038;-47
2023/06/18 01:28:29;;;;;;;8.93;4.30;;;25.00;1.00;;;;;;5015978;28;20550;-50
2023/06/18 01:30:57;;;;;;;7.72;5.50;;;25.00;1.00;;;;;;5056581;22;20041;-49
2023/06/18 01:33:25;;;;;;;6.47;5.00;;;25.00;1.00;;;;;;5052707;28;20041;-51
2023/06/18 01:35:52;;;;;;;7.65;4.75;;;25.00;1.00;;;;;;5053566;28;20055;-49
2023/06/18 01:38:33;;;;;;;7.82;5.45;;;25.00;1.00;;;;;;5053623;28;20047;-50
2023/06/18 01:41:18;;;;;;;7.95;5.30;;;25.00;1.00;;;;;;5035537;28;20064;-50
2023/06/18 01:43:57;;;;;;;5.93;4.18;;;25.00;1.00;;;;;;5036435;28;20128;-49
2023/06/18 01:46:28;;;;;;;6.28;4.75;;;25.00;1.00;;;;;;5036686;28;20034;-50
2023/06/18 01:49:03;;;;;;;6.43;4.78;;;25.00;1.00;;;;;;5039057;28;20488;-47
2023/06/18 01:51:32;;;;;;;6.88;4.65;;;25.00;1.00;;;;;;5033711;28;20061;-51
2023/06/18 01:54:01;;;;;;;7.55;4.80;;;25.00;1.00;;;;;;5035300;28;20041;-47
2023/06/18 01:56:28;;;;;;;7.03;5.07;;;25.00;1.00;;;;;;5035443;28;20045;-49
2023/06/18 01:58:56;;;;;;;9.25;5.63;;;25.00;1.00;;;;;;5035323;28;20055;-46
2023/06/18 02:01:26;;;;;;;6.53;4.70;;;25.00;1.00;;;;;;5034792;28;20037;-49
2023/06/18 02:03:53;;;;;;;9.23;5.30;;;25.00;1.00;;;;;;5036915;28;20049;-48
2023/06/18 02:06:20;;;;;;;7.63;5.32;;;25.00;1.00;;;;;;5041019;28;20077;-46
2023/06/18 02:08:47;;;;;;;8.00;4.63;;;25.00;1.00;;;;;;5033117;28;20056;-51
2023/06/18 02:11:14;;;;;;;9.00;5.45;;;24.90;1.00;;;;;;5035026;28;20040;-51
2023/06/18 02:13:41;;;;;;;9.38;6.00;;;25.00;1.00;;;;;;5037434;28;20053;-50
2023/06/18 02:16:08;;;;;;;7.53;6.07;;;24.90;1.00;;;;;;5040794;28;20141;-49
2023/06/18 02:18:35;;;;;;;7.32;5.90;;;24.90;1.00;;;;;;5044376;28;20044;-44
2023/06/18 02:21:04;;;;;;;6.97;5.25;;;24.90;1.00;;;;;;5038218;28;20392;-46
2023/06/18 02:23:31;;;;;;;7.05;4.88;;;24.90;1.00;;;;;;5039694;28;20051;-47
2023/06/18 02:25:58;;;;;;;10.05;5.53;;;24.90;1.00;;;;;;5031657;28;20049;-44
2023/06/18 02:28:25;;;;;;;5.93;5.18;;;24.90;1.00;;;;;;5050206;28;20040;-50
2023/06/18 02:30:52;;;;;;;6.93;5.40;;;24.90;1.00;;;;;;5052477;28;20127;-49
2023/06/18 02:33:19;;;;;;;8.45;5.03;;;24.90;1.00;;;;;;5052298;28;20464;-59
2023/06/18 02:35:46;;;;;;;8.43;5.05;;;24.90;1.00;;;;;;5052653;28;20489;-49
2023/06/18 02:38:13;;;;;;;8.57;5.45;;;24.90;1.00;;;;;;5034728;28;20045;-49
2023/06/18 02:40:40;;;;;;;8.45;5.20;;;24.90;1.00;;;;;;5034532;28;20057;-47
2023/06/18 02:43:08;;;;;;;7.50;5.60;;;24.90;1.00;;;;;;5052215;28;20048;-45
2023/06/18 02:45:37;;;;;;;7.57;5.30;;;24.90;1.00;;;;;;5034694;28;20140;-49
2023/06/18 02:48:03;;;;;;;7.55;5.47;;;24.90;1.00;;;;;;5034492;28;20575;-44
2023/06/18 02:50:31;;;;;;;7.75;5.15;;;24.90;1.00;;;;;;5034295;28;20037;-50
2023/06/18 02:52:58;;;;;;;7.18;4.88;;;24.90;1.00;;;;;;5034461;28;20094;-49
2023/06/18 02:55:25;;;;;;;7.20;5.20;;;24.90;1.00;;;;;;5054747;28;20463;-50
2023/06/18 02:57:52;;;;;;;6.93;4.97;;;24.90;1.00;;;;;;5037110;28;20136;-51
2023/06/18 03:00:20;;;;;;;6.45;4.95;;;24.80;1.00;;;;;;5035687;28;20037;-49
2023/06/18 03:02:47;;;;;;;6.53;5.18;;;24.90;1.00;;;;;;5034061;28;20094;-51
2023/06/18 03:05:19;;;;;;;8.27;6.07;;;24.90;1.00;;;;;;5036293;28;20072;-51
2023/06/18 03:07:46;;;;;;;8.85;5.53;;;24.80;1.00;;;;;;5030747;28;20037;-51
2023/06/18 03:10:13;;;;;;;8.00;4.60;;;24.80;1.00;;;;;;5038607;28;20052;-50
2023/06/18 03:12:42;;;;;;;8.27;5.70;;;24.80;1.00;;;;;;5033432;28;20045;-50
2023/06/18 03:15:21;;;;;;;8.15;5.32;;;24.80;1.00;;;;;;5030719;28;20412;-49
2023/06/18 03:17:48;;;;;;;6.68;4.63;;;24.80;1.00;;;;;;5033884;28;20045;-50
2023/06/18 03:20:18;;;;;;;6.93;5.60;;;24.80;1.00;;;;;;5033877;28;20056;-47
2023/06/18 03:22:49;;;;;;;7.82;5.63;;;24.80;1.00;;;;;;5033737;28;20033;-51
2023/06/18 03:25:17;;;;;;;8.00;5.15;;;24.80;1.00;;;;;;5051158;28;20202;-49
2023/06/18 03:27:44;;;;;;;8.30;5.70;;;24.80;1.00;;;;;;5032820;28;20068;-47
2023/06/18 03:30:11;;;;;;;6.07;4.60;;;24.80;1.00;;;;;;5031778;28;20342;-48
2023/06/18 03:32:38;;;;;;;8.20;5.20;;;24.80;1.00;;;;;;5032386;28;20048;-49
2023/06/18 03:35:06;;;;;;;6.97;4.95;;;24.80;1.00;;;;;;5032961;28;20052;-49
2023/06/18 03:37:33;;;;;;;7.65;5.05;;;24.80;1.00;;;;;;5032466;28;20500;-46
2023/06/18 03:40:03;;;;;;;7.07;5.28;;;24.80;1.00;;;;;;5032580;28;20575;-46
2023/06/18 03:42:30;;;;;;;7.85;5.30;;;24.80;1.00;;;;;;5031052;28;20037;-44
2023/06/18 03:44:56;;;;;;;7.50;5.35;;;24.80;1.00;;;;;;5044881;28;20354;-51
2023/06/18 03:47:25;;;;;;;8.25;5.45;;;24.80;1.00;;;;;;5033534;28;20029;-44
2023/06/18 03:49:52;;;;;;;5.82;5.00;;;24.80;1.00;;;;;;5033399;28;20060;-51
2023/06/18 03:52:19;;;;;;;6.85;5.40;;;24.80;1.00;;;;;;5051082;28;20091;-48
2023/06/18 03:54:48;;;;;;;7.75;5.15;;;24.80;1.00;;;;;;5017222;28;20055;-49
2023/06/18 03:57:15;;;;;;;7.32;5.13;;;24.80;1.00;;;;;;5033313;28;20049;-49
2023/06/18 03:59:42;;;;;;;8.98;5.82;;;24.80;1.00;;;;;;5033286;28;20045;-50
2023/06/18 04:02:09;;;;;;;6.20;5.25;;;24.80;1.00;;;;;;5032909;28;20086;-51
2023/06/18 04:04:35;;;;;;;9.57;6.38;;;24.80;1.00;;;;;;5033315;28;20045;-50
2023/06/18 04:07:02;;;;;;;7.07;5.57;;;24.80;1.00;;;;;;5035354;28;20069;-50
2023/06/18 04:09:29;;;;;;;6.28;5.03;;;24.80;1.00;;;;;;5034283;28;20083;-51
2023/06/18 04:11:56;;;;;;;8.18;5.47;;;24.80;1.00;;;;;;5029950;28;20456;-51
2023/06/18 04:14:23;;;;;;;6.93;5.38;;;24.80;1.00;;;;;;5032447;28;20133;-47
2023/06/18 04:16:51;;;;;;;6.93;5.25;;;24.80;1.00;;;;;;5025467;28;20049;-51
2023/06/18 04:19:18;;;;;;;6.75;5.20;;;24.80;1.00;;;;;;5033208;28;20075;-49
2023/06/18 04:21:48;;;;;;;7.03;4.93;;;24.70;1.00;;;;;;5032323;28;20497;-45
2023/06/18 04:24:15;;;;;;;7.63;5.28;;;24.80;1.00;;;;;;5017389;28;20048;-48
2023/06/18 04:26:42;;;;;;;6.63;5.00;;;24.70;1.00;;;;;;5036029;28;20047;-51
2023/06/18 04:29:09;;;;;;;9.00;5.45;;;24.70;1.00;;;;;;5054839;28;20029;-49
2023/06/18 04:31:36;;;;;;;8.07;5.30;;;24.70;1.00;;;;;;5034487;28;20045;-45
2023/06/18 04:34:04;;;;;;;6.68;4.68;;;24.70;1.00;;;;;;5036804;28;20131;-51
2023/06/18 04:36:31;;;;;;;7.53;5.47;;;24.70;1.00;;;;;;5054746;28;20040;-46
2023/06/18 04:38:58;;;;;;;6.93;5.35;;;24.70;1.00;;;;;;5035494;28;20044;-45
2023/06/18 04:41:25;;;;;;;7.60;5.53;;;24.70;1.00;;;;;;5040045;28;20089;-46
2023/06/18 04:43:53;;;;;;;7.07;5.15;;;24.70;1.00;;;;;;5019407;28;20037;-47
2023/06/18 04:46:20;;;;;;;8.25;5.53;;;24.70;1.00;;;;;;5020326;28;20086;-46
2023/06/18 04:48:47;;;;;;;6.10;5.05;;;24.70;1.00;;;;;;5040539;28;20459;-51
2023/06/18 04:51:14;;;;;;;7.13;5.47;;;24.70;1.00;;;;;;5036389;28;20041;-51
2023/06/18 04:53:43;;;;;;;7.45;5.70;;;24.70;1.00;;;;;;5036139;28;20045;-45
2023/06/18 04:56:12;;;;;;;6.88;5.38;;;24.70;1.00;;;;;;5036442;28;20423;-46
2023/06/18 04:58:41;;;;;;;7.63;5.25;;;24.70;1.00;;;;;;5036194;28;20504;-48
2023/06/18 05:01:08;;;;;;;10.32;5.32;;;24.70;1.00;;;;;;5036210;28;20044;-45
2023/06/18 05:03:36;;;;;;;9.05;5.70;;;24.70;1.00;;;;;;5053889;28;20124;-46
2023/06/18 05:06:03;;;;;;;7.40;5.55;;;24.70;1.00;;;;;;5036273;28;20041;-51
2023/06/18 05:08:33;;;;;;;8.07;5.75;;;24.70;1.00;;;;;;5034970;28;20566;-48
2023/06/18 05:11:00;;;;;;;7.82;5.60;;;24.70;1.00;;;;;;5047810;28;20385;-45
2023/06/18 05:13:29;;;;;;;6.38;5.18;;;24.70;1.00;;;;;;5042691;28;20106;-50
2023/06/18 05:15:56;;;;;;;7.35;5.57;;;24.70;1.00;;;;;;5032719;28;20048;-44
2023/06/18 05:18:23;;;;;;;6.88;5.40;;;24.70;1.00;;;;;;5035558;28;20457;-50
2023/06/18 05:20:51;;;;;;;7.32;5.50;;;24.70;1.00;;;;;;5035721;28;20041;-46
2023/06/18 05:23:20;;;;;;;8.43;5.55;;;24.70;1.00;;;;;;5035678;28;20048;-51
2023/06/18 05:25:47;;;;;;;6.78;5.25;;;24.70;1.00;;;;;;5019514;28;20204;-44
2023/06/18 05:28:14;;;;;;;6.03;4.68;;;24.70;1.00;;;;;;5035827;28;20068;-48
2023/06/18 05:30:46;;;;;;;7.53;5.10;;;24.60;1.00;;;;;;5037796;28;20044;-51
2023/06/18 05:33:14;;;;;;;8.40;5.60;;;24.60;1.00;;;;;;5026179;28;20455;-50
2023/06/18 05:35:45;;;;;;;7.45;5.63;;;24.60;1.00;;;;;;5018753;28;20439;-50
2023/06/18 05:38:12;;;;;;;8.13;5.60;;;24.60;1.00;;;;;;5035783;28;20047;-50
2023/06/18 05:40:39;;;;;;;8.45;5.35;;;24.60;1.00;;;;;;5035293;28;20071;-50
2023/06/18 05:43:07;;;;;;;7.07;4.97;;;24.60;1.00;;;;;;5035224;28;20456;-48
2023/06/18 05:45:41;;;;;;;5.60;4.68;;;24.60;1.00;;;;;;5035509;28;20072;-50
2023/06/18 05:48:09;;;;;;;8.43;5.90;;;24.60;1.00;;;;;;5035410;28;20086;-50
2023/06/18 05:50:46;;;;;;;7.85;5.82;;;24.60;1.00;;;;;;5035240;28;20091;-50
2023/06/18 05:53:13;;;;;;;12.40;8.25;;;24.60;1.00;;;;;;5035120;28;20045;-45
2023/06/18 05:55:41;;;;;;;16.08;7.90;;;24.60;1.00;;;;;;5027520;28;20103;-47
2023/06/18 05:58:08;;;;;;;16.45;8.73;;;24.60;1.00;;;;;;5015198;28;20045;-47
2023/06/18 06:00:37;;;;;;;14.38;8.27;;;24.60;1.00;;;;;;5031164;28;20076;-48
2023/06/18 06:03:04;;;;;;;14.63;8.93;;;24.60;1.00;;;;;;5032442;28;20042;-49
2023/06/18 06:05:31;;;;;;;19.67;10.32;;;24.60;1.00;;;;;;5027027;28;20042;-44
2023/06/18 06:07:58;;;;;;;11.38;8.50;;;24.60;1.00;;;;;;5016726;28;20046;-48
2023/06/18 06:10:25;;;;;;;11.38;9.35;;;24.60;1.00;;;;;;5032682;28;20049;-47
2023/06/18 06:12:53;;;;;;;15.98;9.10;;;24.60;1.00;;;;;;5041441;28;20045;-46
2023/06/18 06:15:22;;;;;;;17.40;11.20;;;24.60;1.00;;;;;;5042398;28;20095;-51
2023/06/18 06:17:49;;;;;;;11.82;8.88;;;24.60;1.00;;;;;;5035092;28;20056;-50
2023/06/18 06:20:17;;;;;;;16.42;9.40;;;24.60;1.00;;;;;;5019844;28;20073;-48
2023/06/18 06:22:45;;;;;;;16.10;11.02;;;24.60;1.00;;;;;;5035457;28;20412;-50
2023/06/18 06:25:12;;;;;;;14.02;9.45;;;24.60;1.00;;;;;;5035212;28;20037;-49
2023/06/18 06:27:41;;;;;;;17.95;11.48;;;24.60;1.00;;;;;;5034632;28;20064;-50
2023/06/18 06:30:09;;;;;;;13.95;10.30;;;24.60;1.00;;;;;;5032648;28;20049;-45
2023/06/18 06:32:36;;;;;;;16.27;10.05;;;24.60;1.00;;;;;;5034612;28;20408;-45
2023/06/18 06:35:03;;;;;;;16.65;10.25;;;24.60;1.00;;;;;;5034647;28;20037;-47
2023/06/18 06:37:32;;;;;;;16.98;10.23;;;24.60;1.00;;;;;;5052492;28;20353;-50
2023/06/18 06:40:02;;;;;;;15.77;10.98;;;24.60;1.00;;;;;;5043073;23;20045;-44
2023/06/18 06:42:31;;;;;;;17.30;9.77;;;24.50;1.00;;;;;;5044264;28;20037;-48
2023/06/18 06:45:16;;;;;;;14.25;10.38;;;24.60;1.00;;;;;;5064186;28;20043;-51
2023/06/18 06:48:06;;;;;;;16.23;9.65;;;24.60;1.00;;;;;;5044854;28;20064;-49
2023/06/18 06:50:55;;;;;;;16.45;9.43;;;24.50;1.00;;;;;;5068801;28;20044;-46
2023/06/18 06:53:45;;;;;;;14.57;9.30;;;24.50;1.00;;;;;;5071671;28;20113;-51
2023/06/18 06:56:14;;;;;;;12.85;9.23;;;24.50;1.00;;;;;;5051808;28;20525;-45
2023/06/18 06:58:42;;;;;;;13.90;10.40;;;24.50;1.00;;;;;;5071639;28;20044;-47
2023/06/18 07:01:08;;;;;;;18.27;11.02;;;24.50;1.00;;;;;;5078974;28;20135;-48
2023/06/18 07:03:36;;;;;;;13.73;8.45;;;24.50;1.00;;;;;;5057568;28;20447;-50
2023/06/18 07:06:06;;;;;;;16.13;10.00;;;24.50;1.00;;;;;;5072020;28;20060;-47
2023/06/18 07:08:33;;;;;;;15.02;10.82;;;24.50;1.00;;;;;;5072052;28;20039;-51
2023/06/18 07:11:00;;;;;;;15.68;9.20;;;24.50;1.00;;;;;;5075944;28;20143;-48
2023/06/18 07:13:27;;;;;;;16.70;8.73;;;24.50;1.00;;;;;;5071195;28;20040;-47
2023/06/18 07:15:54;;;;;;;12.35;8.05;;;24.50;1.00;;;;;;5071692;28;20052;-50
2023/06/18 07:18:20;;;;;;;19.92;9.02;;;24.50;1.00;;;;;;5076277;28;20048;-47
2023/06/18 07:20:47;;;;;;;17.15;10.15;;;24.50;1.00;;;;;;5080644;28;20067;-45
2023/06/18 07:23:14;;;;;;;21.23;10.20;;;24.60;1.00;;;;;;5085381;28;20074;-47
2023/06/18 07:25:41;;;;;;;15.98;9.02;;;24.50;1.00;;;;;;5083263;28;20113;-46
2023/06/18 07:28:08;;;;;;;15.50;7.82;;;24.50;1.00;;;;;;5078899;28;20067;-46
2023/06/18 07:30:35;;;;;;;13.32;8.35;;;24.50;1.00;;;;;;5079802;28;20058;-49
2023/06/18 07:33:01;;;;;;;11.73;7.68;;;24.60;1.00;;;;;;5091621;28;20119;-48
2023/06/18 07:35:28;;;;;;;14.43;7.45;;;24.60;1.00;;;;;;5066247;28;20032;-48
2023/06/18 07:37:55;;;;;;;12.45;8.45;;;24.60;1.00;;;;;;5071422;28;20048;-44
2023/06/18 07:40:22;;;;;;;14.32;8.23;;;24.60;1.00;;;;;;5071290;28;20758;-44
2023/06/18 07:42:49;;;;;;;11.52;7.50;;;24.60;1.00;;;;;;5071110;28;20048;-45
2023/06/18 07:45:16;;;;;;;11.57;7.35;;;24.60;1.00;;;;;;5063876;28;20350;-47
2023/06/18 07:47:43;;;;;;;12.57;6.80;;;24.60;1.00;;;;;;5070749;28;20045;-49
2023/06/18 07:50:10;;;;;;;10.77;7.20;;;24.60;1.00;;;;;;5072977;28;20044;-45
2023/06/18 07:52:37;;;;;;;17.23;8.63;;;24.60;1.00;;;;;;5075566;28;20040;-47
2023/06/18 07:55:04;;;;;;;13.48;8.40;;;24.60;1.00;;;;;;5059689;28;20042;-46
2023/06/18 07:57:31;;;;;;;14.05;9.80;;;24.60;1.00;;;;;;5082411;28;20500;-47
2023/06/18 07:59:58;;;;;;;14.45;10.07;;;24.60;1.00;;;;;;5061345;28;20072;-47
2023/06/18 08:02:24;;;;;;;18.25;8.98;;;24.60;1.00;;;;;;5077095;28;20044;-48
2023/06/18 08:04:51;;;;;;;16.33;8.30;;;24.60;1.00;;;;;;5075185;28;20032;-47
2023/06/18 08:07:19;;;;;;;12.98;9.13;;;24.60;1.00;;;;;;5075110;28;20041;-47
2023/06/18 08:09:46;;;;;;;15.32;8.35;;;24.60;1.00;;;;;;5076672;28;20032;-49
2023/06/18 08:12:12;;;;;;;16.50;8.32;;;24.60;1.00;;;;;;5077856;28;20055;-45
2023/06/18 08:14:39;;;;;;;13.15;8.73;;;24.60;1.00;;;;;;5083741;28;20044;-50
2023/06/18 08:17:06;;;;;;;17.88;8.73;;;24.60;1.00;;;;;;5076260;28;20483;-48
2023/06/18 08:19:33;;;;;;;12.63;9.32;;;24.60;1.00;;;;;;5079674;28;20042;-45
2023/06/18 08:22:03;;;;;;;12.98;9.07;;;24.60;1.00;;;;;;5058598;28;20414;-48
2023/06/18 08:24:30;;;;;;;12.55;8.15;;;24.60;1.00;;;;;;5084549;28;20036;-51
2023/06/18 08:26:57;;;;;;;26.67;9.05;;;24.60;1.00;;;;;;5080448;28;20498;-51
2023/06/18 08:29:23;;;;;;;14.55;9.30;;;24.60;1.00;;;;;;5078976;28;20036;-49
2023/06/18 08:31:50;;;;;;;14.18;8.57;;;24.60;1.00;;;;;;5079239;28;20048;-48
2023/06/18 08:34:17;;;;;;;11.75;9.18;;;24.60;1.00;;;;;;5081668;28;20050;-49
2023/06/18 08:36:47;;;;;;;12.52;9.00;;;24.60;1.00;;;;;;5083655;28;20052;-49
2023/06/18 08:39:14;;;;;;;12.80;8.38;;;24.60;1.00;;;;;;5084482;28;20044;-50
2023/06/18 08:41:44;;;;;;;14.80;8.52;;;24.60;1.00;;;;;;5082710;28;20052;-50
2023/06/18 08:44:13;;;;;;;11.18;7.70;;;24.60;1.00;;;;;;5083928;28;20040;-50
2023/06/18 08:46:43;;;;;;;10.98;7.53;;;24.60;1.00;;;;;;5081116;28;20043;-45
2023/06/18 08:49:10;;;;;;;12.23;8.80;;;24.60;1.00;;;;;;5084371;28;20118;-49
2023/06/18 08:51:39;;;;;;;11.38;7.80;;;24.60;1.00;;;;;;5080912;28;20040;-51
2023/06/18 08:54:18;;;;;;;13.50;9.68;;;24.60;1.00;;;;;;5062571;28;20453;-48
2023/06/18 08:56:54;;;;;;;12.50;7.95;;;24.60;1.00;;;;;;5080244;28;20083;-46
2023/06/18 08:59:21;;;;;;;12.23;8.65;;;24.60;1.00;;;;;;5061657;28;20399;-49
2023/06/18 09:01:52;;;;;;;10.43;7.13;;;24.60;1.00;;;;;;5055264;28;20055;-47
2023/06/18 09:04:21;;;;;;;13.20;8.23;;;24.60;1.00;;;;;;5074388;28;20051;-47
2023/06/18 09:06:49;;;;;;;11.70;7.68;;;24.60;1.00;;;;;;5071818;28;20093;-51
2023/06/18 09:09:19;;;;;;;9.50;7.15;;;24.60;1.00;;;;;;5057656;28;20056;-50
2023/06/18 09:11:46;;;;;;;10.68;7.97;;;24.60;1.00;;;;;;5091813;28;20071;-52
2023/06/18 09:14:15;;;;;;;13.18;7.60;;;24.60;1.00;;;;;;5094451;28;20051;-52
2023/06/18 09:16:42;;;;;;;12.57;7.93;;;24.60;1.00;;;;;;5094291;28;20048;-51
2023/06/18 09:19:09;;;;;;;10.38;7.32;;;24.60;1.00;;;;;;5076262;28;20043;-51
2023/06/18 09:21:39;;;;;;;13.73;7.88;;;24.60;1.00;;;;;;5072361;28;20562;-50
2023/06/18 09:24:08;;;;;;;13.38;7.55;;;24.60;1.00;;;;;;5093759;28;20119;-51
2023/06/18 09:26:36;;;;;;;8.95;7.22;;;24.60;1.00;;;;;;5076368;28;20110;-51
2023/06/18 09:29:06;;;;;;;10.93;7.22;;;24.60;1.00;;;;;;5094812;28;20043;-47
2023/06/18 09:31:41;;;;;;;10.30;6.90;;;24.60;1.00;;;;;;5094108;28;20460;-45
2023/06/18 09:34:15;;;;;;;9.02;6.88;;;24.60;1.00;;;;;;5086602;28;20079;-48
2023/06/18 09:36:44;;;;;;;9.20;6.95;;;24.60;1.00;;;;;;5094390;28;20052;-44
2023/06/18 09:39:22;;;;;;;11.18;7.10;;;24.60;1.00;;;;;;5076460;28;20499;-60
2023/06/18 09:41:55;;;;;;;9.77;6.70;;;24.60;1.00;;;;;;5255627;22;20075;-51
2023/06/18 09:44:22;;;;;;;11.35;7.35;;;24.60;1.00;;;;;;5132860;22;20060;-50
2023/06/18 09:46:59;;;;;;;12.30;6.07;;;24.60;1.00;;;;;;5033405;28;20397;-48
2023/06/18 09:49:29;;;;;;;9.02;6.72;;;24.70;1.00;;;;;;5035506;28;20045;-48
2023/06/18 09:51:56;;;;;;;11.07;7.25;;;24.60;1.00;;;;;;5018136;28;20049;-48
2023/06/18 09:54:38;;;;;;;9.52;6.13;;;24.70;1.00;;;;;;5010134;28;20104;-50
2023/06/18 09:57:06;;;;;;;9.57;6.43;;;24.70;1.00;;;;;;5024694;28;20041;-47
2023/06/18 09:59:33;;;;;;;10.57;6.53;;;24.70;1.00;;;;;;5033551;28;20124;-44
2023/06/18 10:02:00;;;;;;;9.23;6.47;;;24.70;1.00;;;;;;5032907;28;20037;-44
2023/06/18 10:04:27;;;;;;;8.32;6.88;;;24.70;1.00;;;;;;5033391;28;20087;-47
2023/06/18 10:06:58;;;;;;;8.45;6.60;;;24.70;1.00;;;;;;5033692;28;20508;-46
2023/06/18 10:09:33;;;;;;;9.38;7.28;;;24.70;1.00;;;;;;5033393;28;20034;-44
2023/06/18 10:12:01;;;;;;;10.68;7.22;;;24.70;1.00;;;;;;5014794;28;20050;-44
2023/06/18 10:14:30;;;;;;;9.85;6.70;;;24.70;1.00;;;;;;5060534;22;20084;-49
2023/06/18 10:17:11;;;;;;;10.38;6.97;;;24.70;1.00;;;;;;5069725;28;20053;-45
2023/06/18 10:19:41;;;;;;;7.68;6.28;;;24.70;1.00;;;;;;5064659;28;20051;-47
2023/06/18 10:22:13;;;;;;;11.90;7.25;;;24.70;1.00;;;;;;5045057;28;20065;-46
2023/06/18 10:24:55;;;;;;;10.23;6.70;;;24.70;1.00;;;;;;5034811;28;20073;-51
2023/06/18 10:27:23;;;;;;;9.45;6.47;;;24.70;1.00;;;;;;5052962;28;20052;-48
2023/06/18 10:29:50;;;;;;;10.23;6.90;;;24.70;1.00;;;;;;5052525;28;20124;-50
2023/06/18 10:32:18;;;;;;;9.15;6.40;;;24.70;1.00;;;;;;5052585;28;20041;-50
2023/06/18 10:34:45;;;;;;;9.52;7.10;;;24.70;1.00;;;;;;5052502;28;20045;-46
2023/06/18 10:37:13;;;;;;;11.88;6.25;;;24.70;1.00;;;;;;5052683;28;20045;-45
2023/06/18 10:39:40;;;;;;;8.70;7.03;;;24.80;1.00;;;;;;5052463;28;20048;-45
2023/06/18 10:42:12;;;;;;;9.98;6.93;;;24.80;1.00;;;;;;5490793;22;20435;-48
2023/06/18 10:45:08;;;;;;;7.75;6.68;;;24.80;1.00;;;;;;5108594;22;20967;-47
2023/06/18 10:47:35;;;;;;;11.15;6.95;;;24.80;1.00;;;;;;5047340;28;20048;-47
2023/06/18 10:50:02;;;;;;;8.98;6.15;;;24.80;1.00;;;;;;5052068;28;20052;-46
2023/06/18 10:52:45;;;;;;;9.02;6.45;;;24.80;1.00;;;;;;5051850;28;20044;-44
2023/06/18 10:55:24;;;;;;;9.73;7.35;;;24.80;1.00;;;;;;5035805;28;20076;-45
2023/06/18 10:58:03;;;;;;;8.93;5.93;;;24.80;1.00;;;;;;5052016;28;20090;-49
2023/06/18 11:00:40;;;;;;;8.48;6.85;;;24.80;1.00;;;;;;5051966;28;20037;-47
2023/06/18 11:03:17;;;;;;;7.78;5.97;;;24.80;1.00;;;;;;5051586;28;20502;-49
2023/06/18 11:05:51;;;;;;;9.93;6.38;;;24.80;1.00;;;;;;5051935;28;20556;-51
2023/06/18 11:08:27;;;;;;;7.70;6.45;;;24.80;1.00;;;;;;5052231;28;20468;-50
2023/06/18 11:11:02;;;;;;;10.65;6.63;;;24.80;1.00;;;;;;5051583;28;20049;-52
2023/06/18 11:13:32;;;;;;;6.90;5.78;;;24.80;1.00;;;;;;5051586;28;20059;-49
2023/06/18 11:16:12;;;;;;;7.53;6.25;;;24.80;1.00;;;;;;5322325;22;21074;-50
2023/06/18 11:18:43;;;;;;;10.07;6.30;;;24.80;1.00;;;;;;5067276;28;20102;-49
2023/06/18 11:21:16;;;;;;;9.35;6.75;;;24.80;1.00;;;;;;5053666;28;20052;-49
2023/06/18 11:23:44;;;;;;;11.63;6.97;;;24.80;1.00;;;;;;5053821;28;20127;-45
2023/06/18 11:26:18;;;;;;;7.43;6.50;;;24.80;1.00;;;;;;5071848;28;20119;-44
2023/06/18 11:28:49;;;;;;;6.57;5.68;;;24.80;1.00;;;;;;5071765;28;20087;-46
2023/06/18 11:31:16;;;;;;;9.15;5.95;;;24.80;1.00;;;;;;5071249;28;20035;-51
2023/06/18 11:33:47;;;;;;;11.52;7.10;;;24.80;1.00;;;;;;5053396;28;20041;-46
2023/06/18 11:36:17;;;;;;;7.97;6.03;;;24.80;1.00;;;;;;5071453;28;20407;-47
2023/06/18 11:38:47;;;;;;;7.95;6.85;;;24.80;1.00;;;;;;5071548;28;20047;-51
2023/06/18 11:41:22;;;;;;;8.10;6.72;;;24.80;1.00;;;;;;5071568;28;20498;-50
2023/06/18 11:43:51;;;;;;;8.23;6.30;;;24.80;1.00;;;;;;5071022;28;20115;-48
2023/06/18 11:46:40;;;;;;;7.47;5.75;;;24.80;1.00;;;;;;5071420;28;20527;-50
2023/06/18 11:49:14;;;;;;;6.57;5.95;;;24.80;1.00;;;;;;5178863;22;20045;-56
2023/06/18 11:51:41;;;;;;;8.90;6.85;;;24.90;1.00;;;;;;5071658;28;20063;-58
2023/06/18 11:54:08;;;;;;;11.35;6.68;;;24.90;1.00;;;;;;5071637;28;20044;-59
2023/06/18 11:56:35;;;;;;;8.38;6.40;;;24.90;1.00;;;;;;5071829;28;20055;-59
2023/06/18 11:59:03;;;;;;;9.48;7.65;;;24.90;1.00;;;;;;5071607;28;20051;-59
2023/06/18 12:01:31;;;;;;;7.53;6.22;;;24.90;1.00;;;;;;5074003;28;20051;-59
2023/06/18 12:04:06;;;;;;;7.55;5.82;;;24.90;1.00;;;;;;5071448;28;20056;-59
2023/06/18 12:06:33;;;;;;;8.10;5.45;;;24.90;1.00;;;;;;5071741;28;20131;-58
2023/06/18 12:09:18;;;;;;;8.63;6.22;;;24.90;1.00;;;;;;5071523;28;20047;-59
2023/06/18 12:12:00;;;;;;;9.38;6.20;;;24.90;1.00;;;;;;5053659;28;20033;-59
2023/06/18 12:14:35;;;;;;;8.73;6.28;;;24.90;1.00;;;;;;5071667;28;20436;-59
2023/06/18 12:17:41;;;;;;;9.15;5.60;;;24.90;1.00;;;;;;5071369;28;20053;-57
2023/06/18 12:20:13;;;;;;;9.27;6.15;;;24.90;1.00;;;;;;5152126;22;20060;-57
2023/06/18 12:22:41;;;;;;;9.73;6.43;;;24.90;1.00;;;;;;5071151;28;20049;-58
2023/06/18 12:25:11;;;;;;;7.85;6.47;;;24.90;1.00;;;;;;5071197;28;20048;-58
2023/06/18 12:27:41;;;;;;;7.25;6.25;;;24.90;1.00;;;;;;5071340;28;20045;-58
2023/06/18 12:30:09;;;;;;;10.13;5.93;;;24.90;1.00;;;;;;5071352;28;20040;-56
2023/06/18 12:32:37;;;;;;;9.45;6.68;;;24.90;1.00;;;;;;5062726;28;20044;-57
2023/06/18 12:35:16;;;;;;;9.30;6.60;;;24.90;1.00;;;;;;5071100;28;20044;-57
2023/06/18 12:37:46;;;;;;;8.02;6.32;;;24.90;1.00;;;;;;5071411;28;20041;-58
2023/06/18 12:40:24;;;;;;;8.55;6.68;;;24.90;1.00;;;;;;5071056;28;20530;-58
2023/06/18 12:42:52;;;;;;;8.95;6.13;;;25.00;1.00;;;;;;5073702;28;20044;-59
2023/06/18 12:45:29;;;;;;;11.55;6.97;;;25.00;1.00;;;;;;5074634;28;20482;-58
2023/06/18 12:48:11;;;;;;;8.60;6.97;;;25.00;1.00;;;;;;5074665;28;20044;-58
2023/06/18 12:50:38;;;;;;;8.32;6.75;;;25.00;1.00;;;;;;5192657;22;20052;-57
2023/06/18 12:53:17;;;;;;;8.10;6.82;;;25.00;1.00;;;;;;5074488;28;20048;-58
2023/06/18 12:55:50;;;;;;;9.70;6.05;;;25.00;1.00;;;;;;5074958;28;20403;-58
2023/06/18 12:58:27;;;;;;;9.98;6.20;;;25.00;1.00;;;;;;5074949;28;20059;-57
2023/06/18 13:00:58;;;;;;;8.43;6.35;;;25.00;1.00;;;;;;5074500;28;20491;-59
2023/06/18 13:03:27;;;;;;;9.40;6.22;;;25.00;1.00;;;;;;5074404;28;20036;-59
2023/06/18 13:05:57;;;;;;;9.80;6.75;;;25.00;1.00;;;;;;5056560;28;20049;-60